createdAt,value
2019-04-22T00:01:20.576Z,34.80
2019-04-22T00:03:53.188Z,34.80
2019-04-22T00:06:42.460Z,34.80
2019-04-22T00:09:11.068Z,34.60
2019-04-22T00:11:54.931Z,34.40
2019-04-22T00:14:11.910Z,34.10
2019-04-22T00:16:58.837Z,33.90
2019-04-22T00:19:38.877Z,33.90
2019-04-22T00:22:11.887Z,33.90
2019-04-22T00:24:40.228Z,34.00
2019-04-22T00:27:28.116Z,33.90
2019-04-22T00:29:59.349Z,33.80
2019-04-22T00:32:24.596Z,33.60
2019-04-22T00:34:59.267Z,33.70
2019-04-22T00:37:35.359Z,33.70
2019-04-22T00:39:57.820Z,33.60
2019-04-22T00:42:51.392Z,33.50
2019-04-22T00:45:19.332Z,33.50
2019-04-22T00:48:07.283Z,33.50
2019-04-22T00:50:37.147Z,33.50
2019-04-22T00:58:43.912Z,33.30
2019-04-22T01:03:55.844Z,33.20
2019-04-22T01:06:20.366Z,33.30
2019-04-22T01:14:09.246Z,33.50
2019-04-22T01:16:42.950Z,33.50
2019-04-22T01:19:16.630Z,33.30
2019-04-22T01:21:45.158Z,33.30
2019-04-22T01:24:20.441Z,33.30
2019-04-22T01:26:43.580Z,33.30
2019-04-22T01:29:11.853Z,33.40
2019-04-22T01:31:41.615Z,33.30
2019-04-22T01:34:27.885Z,33.30
2019-04-22T01:37:07.788Z,33.40
2019-04-22T01:39:49.989Z,33.40
2019-04-22T01:42:21.901Z,33.50
2019-04-22T01:45:02.790Z,33.40
2019-04-22T01:47:36.794Z,33.30
2019-04-22T01:50:06.128Z,33.40
2019-04-22T01:52:41.614Z,33.50
2019-04-22T01:55:32.393Z,33.60
2019-04-22T01:57:53.550Z,33.80
2019-04-22T02:00:27.413Z,33.90
2019-04-22T02:03:07.239Z,33.90
2019-04-22T02:05:35.779Z,33.90
2019-04-22T02:08:19.843Z,33.80
2019-04-22T02:10:49.364Z,33.70
2019-04-22T02:13:21.883Z,33.70
2019-04-22T02:16:14.273Z,33.70
2019-04-22T02:18:49.120Z,33.50
2019-04-22T02:21:28.639Z,33.70
2019-04-22T02:24:18.055Z,33.80
2019-04-22T02:26:43.357Z,33.80
2019-04-22T02:29:16.811Z,33.40
2019-04-22T02:42:43.638Z,33.70
2019-04-22T02:45:22.341Z,34.30
2019-04-22T02:47:50.331Z,33.60
2019-04-22T02:50:36.607Z,33.90
2019-04-22T02:53:02.026Z,34.10
2019-04-22T02:55:41.320Z,34.20
2019-04-22T02:58:15.926Z,34.10
2019-04-22T03:00:54.172Z,34.20
2019-04-22T03:06:02.718Z,34.00
2019-04-22T03:08:23.573Z,34.00
2019-04-22T03:11:04.086Z,34.00
2019-04-22T03:16:51.073Z,34.10
2019-04-22T03:19:43.394Z,34.00
2019-04-22T03:26:58.463Z,33.80
2019-04-22T03:33:05.005Z,33.90
2019-04-22T03:45:34.029Z,34.30
2019-04-22T03:48:08.012Z,34.20
2019-04-22T03:50:37.254Z,34.30
2019-04-22T03:53:32.957Z,34.30
2019-04-22T03:56:15.569Z,34.40
2019-04-22T03:58:43.325Z,34.40
2019-04-22T04:01:18.755Z,34.40
2019-04-22T04:03:53.480Z,34.60
2019-04-22T04:06:06.852Z,34.50
2019-04-22T04:09:12.827Z,34.50
2019-04-22T04:20:06.383Z,34.70
2019-04-22T04:22:45.328Z,35.00
2019-04-22T04:25:06.001Z,34.60
2019-04-22T04:35:28.242Z,34.50
2019-04-22T04:48:14.476Z,34.70
2019-04-22T04:51:02.380Z,34.70
2019-04-22T04:55:38.806Z,34.80
2019-04-22T04:58:36.702Z,34.80
2019-04-22T05:01:14.854Z,34.80
2019-04-22T05:03:39.929Z,34.60
2019-04-22T05:06:05.894Z,34.50
2019-04-22T05:09:00.889Z,34.20
2019-04-22T05:11:24.989Z,34.10
2019-04-22T05:14:05.875Z,34.00
2019-04-22T05:21:40.648Z,33.90
2019-04-22T05:24:26.068Z,34.10
2019-04-22T05:26:56.726Z,34.10
2019-04-22T05:29:56.586Z,34.00
2019-04-22T05:32:08.894Z,34.30
2019-04-22T05:34:40.105Z,34.70
2019-04-22T05:37:20.696Z,34.70
2019-04-22T05:39:52.723Z,34.40
2019-04-22T05:42:18.047Z,34.30
2019-04-22T05:45:05.522Z,34.30
2019-04-22T05:47:50.515Z,34.30
2019-04-22T05:50:06.477Z,34.40
2019-04-22T05:52:31.631Z,35.00
2019-04-22T05:55:09.704Z,35.20
2019-04-22T05:57:45.740Z,35.20
2019-04-22T06:00:18.270Z,35.10
2019-04-22T06:05:10.118Z,35.10
2019-04-22T06:07:45.669Z,35.00
2019-04-22T06:10:26.102Z,35.00
2019-04-22T06:12:43.032Z,35.10
2019-04-22T06:15:18.435Z,35.20
2019-04-22T06:18:03.076Z,35.00
2019-04-22T06:20:21.942Z,34.90
2019-04-22T06:22:56.806Z,34.80
2019-04-22T06:25:38.648Z,34.80
2019-04-22T06:28:04.874Z,34.70
2019-04-22T06:30:46.606Z,34.80
2019-04-22T06:35:56.274Z,35.30
2019-04-22T06:40:52.119Z,34.70
2019-04-22T06:43:15.876Z,35.00
2019-04-22T06:45:45.024Z,34.80
2019-04-22T06:51:09.438Z,34.60
2019-04-22T06:53:23.942Z,34.50
2019-04-22T06:55:51.377Z,34.90
2019-04-22T06:58:28.940Z,34.80
2019-04-22T07:00:55.055Z,34.70
2019-04-22T07:03:42.819Z,34.60
2019-04-22T07:05:57.013Z,34.60
2019-04-22T07:11:01.620Z,34.40
2019-04-22T07:13:41.495Z,35.10
2019-04-22T07:16:13.315Z,34.40
2019-04-22T07:18:45.203Z,34.40
2019-04-22T07:21:12.561Z,34.40
2019-04-22T07:23:54.014Z,34.40
2019-04-22T07:26:18.933Z,34.50
2019-04-22T07:28:49.132Z,34.40
2019-04-22T07:31:20.821Z,34.60
2019-04-22T07:33:58.231Z,35.00
2019-04-22T07:39:04.209Z,36.50
2019-04-22T07:41:38.387Z,36.90
2019-04-22T07:46:56.285Z,36.70
2019-04-22T07:49:32.279Z,36.70
2019-04-22T07:52:04.808Z,36.80
2019-04-22T07:54:50.886Z,37.00
2019-04-22T07:57:19.925Z,37.10
2019-04-22T07:59:54.181Z,37.10
2019-04-22T08:02:14.578Z,37.10
2019-04-22T08:04:59.012Z,37.00
2019-04-22T08:07:27.073Z,37.10
2019-04-22T08:10:00.105Z,37.90
2019-04-22T08:12:26.777Z,37.20
2019-04-22T08:14:53.626Z,37.50
2019-04-22T08:17:52.066Z,37.60
2019-04-22T08:20:02.769Z,37.40
2019-04-22T08:22:26.112Z,37.40
2019-04-22T08:25:01.716Z,37.50
2019-04-22T08:27:35.325Z,37.10
2019-04-22T08:30:14.371Z,37.20
2019-04-22T15:35:27.269Z,29.50
2019-04-22T15:37:59.256Z,29.10
2019-04-22T15:40:29.397Z,29.00
2019-04-22T15:43:02.702Z,28.90
2019-04-22T15:45:34.720Z,28.70
2019-04-22T15:48:06.028Z,28.40
2019-04-22T15:50:37.132Z,28.10
2019-04-22T15:53:09.656Z,28.20
2019-04-22T15:55:44.925Z,28.10
2019-04-22T15:58:23.853Z,27.80
2019-04-22T16:01:08.846Z,27.90
2019-04-22T16:03:29.000Z,27.80
2019-04-22T16:05:59.820Z,27.70
2019-04-22T16:08:33.597Z,27.60
2019-04-22T16:11:02.011Z,27.60
2019-04-22T16:13:35.803Z,27.60
2019-04-22T16:16:06.776Z,27.60
2019-04-22T16:18:40.553Z,27.60
2019-04-22T16:21:11.304Z,27.60
2019-04-22T16:24:00.440Z,27.90
2019-04-22T16:26:58.339Z,27.90
2019-04-22T16:29:29.501Z,27.90
2019-04-22T16:32:01.193Z,28.00
2019-04-22T16:34:34.083Z,28.00
2019-04-22T16:37:14.758Z,27.90
2019-04-22T16:39:48.594Z,27.90
2019-04-22T16:42:27.713Z,27.90
2019-04-22T16:44:51.293Z,27.90
2019-04-22T16:47:23.705Z,27.90
2019-04-22T22:01:56.880Z,32.10
2019-04-22T22:04:25.130Z,33.30
2019-04-22T22:06:54.834Z,33.50
2019-04-22T22:09:53.888Z,33.40
2019-04-22T22:12:24.252Z,33.20
2019-04-22T22:15:03.116Z,32.90
2019-04-22T22:20:17.290Z,32.30
2019-04-22T22:22:52.198Z,32.10
2019-04-22T22:25:23.655Z,31.90
2019-04-22T22:27:53.377Z,31.60
2019-04-22T22:30:52.569Z,31.40
2019-04-22T22:33:11.011Z,31.30
2019-04-22T22:35:45.635Z,31.10
2019-04-22T22:38:22.974Z,31.00
2019-04-22T22:40:41.565Z,31.00
2019-04-22T22:43:24.947Z,31.00
2019-04-22T22:46:01.161Z,31.00
2019-04-22T22:48:48.242Z,30.90
2019-04-22T22:51:27.416Z,30.90
2019-04-22T22:53:56.550Z,30.90
2019-04-22T22:57:00.348Z,30.80
2019-04-22T22:59:29.731Z,30.70
2019-04-22T23:01:55.664Z,30.70
2019-04-22T23:04:37.603Z,30.70
2019-04-22T23:07:09.348Z,30.60
2019-04-22T23:09:32.051Z,30.50
2019-04-22T23:12:32.880Z,30.60
2019-04-22T23:14:52.766Z,30.50
2019-04-22T23:17:07.079Z,30.60
2019-04-22T23:19:33.608Z,30.50
2019-04-22T23:22:28.361Z,31.10
2019-04-22T23:25:27.310Z,30.40
2019-04-22T23:28:12.485Z,30.30
2019-04-22T23:31:11.595Z,30.40
2019-04-22T23:34:34.250Z,30.30
2019-04-22T23:37:10.365Z,30.40
2019-04-22T23:40:01.769Z,30.20
2019-04-22T23:42:32.736Z,30.30
2019-04-22T23:45:03.825Z,30.20
2019-04-22T23:47:26.426Z,30.10
2019-04-22T23:50:30.851Z,30.00
2019-04-22T23:53:02.063Z,30.00
2019-04-22T23:55:39.801Z,30.00
2019-04-22T23:58:11.763Z,30.00
